Upstream stations:
Downstream station:
SHEF ID: WCOM7 Spring R A - Waco MO
STATION TYPE: Stream Gauge
Regulating: Stage = 19.00, Flow = 17743
PRECIP STAGE RIV-FLOW BAT-LOAD
in ft cfs volt
Ccp-Rev Ccp-Rev Ccp-Rev Ccp-Rev
(US/Central)
04/02 00:00 0.00 3.58 1252 12.83
04/02 01:00 0.00 3.53 1215 12.77
04/02 02:00 0.00 3.54 1223 12.77
04/02 03:00 0.00 3.55 1230 12.77
04/02 04:00 0.00 3.53 1215 12.71
04/02 05:00 0.00 3.51 1201 12.71
04/02 06:00 0.00 3.49 1186 12.71
04/02 07:00 0.00 3.48 1179 12.71
04/02 08:00 0.00 3.46 1165 12.71
04/02 09:00 0.00 3.43 1143 12.89
04/02 10:00 0.00 3.43 1143 13.53
04/02 11:00 0.00 3.40 1122 14.06
04/02 12:00 0.00 3.42 1136 14.12
04/02 13:00 0.00 3.37 1101 14.12
04/02 14:00 0.00 3.35 1087 14.12
04/02 15:00 0.00 3.37 1101 14.06
04/02 16:00 0.00 3.36 1094 14.06
04/02 17:00 0.00 3.36 1094 14.00
04/02 18:00 0.00 3.32 1066 13.94
04/02 19:00 0.00 3.32 1066 13.77
04/02 20:00 0.00 3.29 1046 13.36
04/02 21:00 0.00 3.29 1046 13.07
04/02 22:00 0.00 3.29 1046 12.89
04/02 23:00 ---- ---- ---- ----